createdAt,value
2019-04-28T00:01:21.053Z,5.80
2019-04-28T00:03:51.587Z,5.70
2019-04-28T00:06:21.206Z,5.60
2019-04-28T00:08:51.743Z,5.60
2019-04-28T00:11:22.600Z,5.60
2019-04-28T00:13:53.644Z,5.70
2019-04-28T00:16:23.303Z,5.70
2019-04-28T00:18:52.892Z,5.70
2019-04-28T00:21:35.430Z,5.70
2019-04-28T00:24:23.141Z,5.70
2019-04-28T00:26:55.682Z,5.60
2019-04-28T00:29:37.312Z,5.50
2019-04-28T00:31:56.554Z,5.50
2019-04-28T00:34:26.117Z,5.50
2019-04-28T00:37:06.945Z,5.60
2019-04-28T00:39:36.376Z,5.70
2019-04-28T00:42:06.173Z,5.80
2019-04-28T00:44:41.560Z,5.70
2019-04-28T00:47:11.049Z,5.70
2019-04-28T00:49:48.168Z,5.70
2019-04-28T00:52:22.168Z,5.70
2019-04-28T00:54:52.586Z,5.70
2019-04-28T00:57:25.747Z,5.70
2019-04-28T00:59:58.670Z,5.70
2019-04-28T01:02:45.717Z,5.70
2019-04-28T01:05:15.746Z,5.70
2019-04-28T01:07:45.341Z,5.80
2019-04-28T01:10:14.975Z,5.80
2019-04-28T01:12:46.625Z,5.80
2019-04-28T01:15:30.446Z,5.90
2019-04-28T01:18:10.476Z,5.80
2019-04-28T01:20:40.021Z,5.80
2019-04-28T01:23:10.376Z,5.80
2019-04-28T01:25:40.177Z,5.90
2019-04-28T01:28:10.200Z,5.90
2019-04-28T01:31:10.636Z,5.90
2019-04-28T01:34:01.767Z,5.90
2019-04-28T01:36:40.726Z,5.80
2019-04-28T01:39:10.338Z,5.70
2019-04-28T01:41:39.887Z,5.60
2019-04-28T01:44:11.008Z,5.60
2019-04-28T01:46:40.559Z,5.70
2019-04-28T01:49:09.992Z,5.70
2019-04-28T01:51:41.439Z,5.60
2019-04-28T01:54:11.680Z,5.70
2019-04-28T01:56:41.478Z,5.40
2019-04-28T01:59:10.985Z,5.50
2019-04-28T02:01:40.750Z,5.50
2019-04-28T02:04:12.938Z,5.50
2019-04-28T02:06:42.455Z,5.40
2019-04-28T02:09:12.072Z,5.50
2019-04-28T02:11:41.690Z,5.40
2019-04-28T02:14:11.292Z,5.20
2019-04-28T02:16:40.867Z,5.30
2019-04-28T02:19:10.758Z,5.20
2019-04-28T02:21:55.574Z,5.30
2019-04-28T02:24:32.212Z,5.40
2019-04-28T02:27:01.757Z,5.20
2019-04-28T02:29:35.161Z,5.10
2019-04-28T02:32:06.077Z,5.20
2019-04-28T02:34:35.490Z,5.20
2019-04-28T02:37:04.899Z,5.10
2019-04-28T02:39:34.297Z,4.80
2019-04-28T02:42:03.744Z,5.00
2019-04-28T02:44:35.210Z,5.00
2019-04-28T02:47:05.548Z,4.90
2019-04-28T02:49:56.925Z,4.80
2019-04-28T02:52:44.167Z,4.70
2019-04-28T02:55:14.234Z,4.70
2019-04-28T02:57:51.690Z,4.90
2019-04-28T03:00:22.971Z,4.90
2019-04-28T03:02:52.943Z,4.70
2019-04-28T03:05:22.628Z,4.80
2019-04-28T03:07:52.618Z,4.80
2019-04-28T03:10:22.437Z,4.70
2019-04-28T03:12:52.446Z,4.60
2019-04-28T03:15:22.668Z,4.60
2019-04-28T03:17:53.572Z,4.70
2019-04-28T03:20:23.723Z,4.80
2019-04-28T03:22:53.784Z,4.90
2019-04-28T03:25:33.592Z,4.90
2019-04-28T03:28:12.382Z,4.90
2019-04-28T03:31:48.958Z,4.80
2019-04-28T03:33:55.332Z,4.70
2019-04-28T03:36:25.403Z,4.70
2019-04-28T03:38:55.589Z,4.60
2019-04-28T03:41:25.613Z,4.50
2019-04-28T03:43:55.533Z,4.60
2019-04-28T03:46:30.207Z,4.70
2019-04-28T03:49:00.740Z,4.80
2019-04-28T03:51:32.340Z,4.70
2019-04-28T03:54:03.127Z,4.60
2019-04-28T03:56:43.805Z,4.60
2019-04-28T03:59:31.175Z,4.70
2019-04-28T04:02:11.487Z,4.70
2019-04-28T04:05:04.036Z,4.70
2019-04-28T04:07:35.209Z,4.70
2019-04-28T04:10:13.450Z,4.70
2019-04-28T04:13:07.701Z,4.70
2019-04-28T04:15:49.475Z,4.60
2019-04-28T04:18:22.685Z,4.60
2019-04-28T04:20:55.674Z,4.60
2019-04-28T04:23:30.919Z,4.50
2019-04-28T04:26:11.657Z,4.60
2019-04-28T04:28:41.787Z,4.50
2019-04-28T04:31:12.433Z,4.60
2019-04-28T04:33:42.142Z,4.50
2019-04-28T04:36:15.098Z,4.50
2019-04-28T04:38:57.434Z,4.50
2019-04-28T04:41:30.401Z,4.50
2019-04-28T04:44:10.908Z,4.50
2019-04-28T04:46:41.485Z,4.50
2019-04-28T04:49:11.988Z,4.70
2019-04-28T04:51:43.897Z,4.70
2019-04-28T04:54:13.413Z,4.80
2019-04-28T04:56:45.882Z,4.90
2019-04-28T04:59:25.218Z,4.90
2019-04-28T05:02:26.606Z,4.90
2019-04-28T05:08:05.209Z,5.10
2019-04-28T05:10:41.369Z,5.20
2019-04-28T05:13:17.531Z,5.20
2019-04-28T05:15:52.499Z,5.20
2019-04-28T05:18:26.986Z,5.20
2019-04-28T05:20:59.666Z,5.20
2019-04-28T05:23:51.596Z,5.40
2019-04-28T05:26:21.818Z,5.40
2019-04-28T05:28:55.522Z,5.50
2019-04-28T05:31:31.170Z,5.50
2019-04-28T05:34:11.613Z,5.50
2019-04-28T05:36:46.707Z,5.60
2019-04-28T05:39:22.936Z,5.60
2019-04-28T05:41:54.250Z,5.60
2019-04-28T05:44:37.751Z,5.70
2019-04-28T05:47:11.042Z,5.80
2019-04-28T05:49:59.882Z,5.70
2019-04-28T05:53:00.578Z,5.70
2019-04-28T05:55:50.525Z,5.80
2019-04-28T05:58:46.203Z,5.90
2019-04-28T06:01:35.754Z,5.90
2019-04-28T06:04:09.616Z,6.10
2019-04-28T06:06:42.314Z,6.20
2019-04-28T06:09:46.454Z,6.20
2019-04-28T06:12:31.981Z,6.20
2019-04-28T06:15:02.053Z,6.10
2019-04-28T06:17:32.171Z,6.20
2019-04-28T06:20:05.057Z,6.40
2019-04-28T06:22:35.106Z,6.30
2019-04-28T06:25:04.671Z,6.60
2019-04-28T06:28:10.130Z,6.80
2019-04-28T06:30:40.074Z,6.80
2019-04-28T06:33:09.880Z,6.70
2019-04-28T06:35:43.853Z,6.80
2019-04-28T06:38:13.783Z,6.90
2019-04-28T06:40:47.793Z,7.00
2019-04-28T06:43:17.675Z,7.10
2019-04-28T06:45:47.753Z,7.20
2019-04-28T06:48:24.226Z,7.30
2019-04-28T06:50:57.208Z,7.40
2019-04-28T06:53:27.379Z,7.30
2019-04-28T06:55:57.275Z,7.50
2019-04-28T06:58:27.416Z,7.50
2019-04-28T07:00:57.584Z,7.50
2019-04-28T07:03:30.336Z,7.70
2019-04-28T07:06:03.491Z,7.60
2019-04-28T07:08:33.954Z,8.00
2019-04-28T07:11:09.532Z,8.00
2019-04-28T07:13:39.723Z,7.90
2019-04-28T07:16:13.172Z,8.10
2019-04-28T07:18:43.034Z,8.10
2019-04-28T07:21:28.617Z,8.40
2019-04-28T07:24:04.984Z,8.70
2019-04-28T07:26:35.029Z,9.20
2019-04-28T07:29:04.945Z,9.90
2019-04-28T07:31:34.757Z,10.90
2019-04-28T07:34:04.670Z,11.80
2019-04-28T07:36:42.150Z,12.50
2019-04-28T07:39:15.221Z,13.00
2019-04-28T07:41:45.267Z,13.00
2019-04-28T07:44:15.185Z,13.20
2019-04-28T07:46:44.942Z,13.00
2019-04-28T07:49:14.706Z,14.60
2019-04-28T07:52:06.124Z,15.40
2019-04-28T07:54:36.190Z,14.80
2019-04-28T07:57:06.307Z,15.70
2019-04-28T07:59:36.043Z,15.70
2019-04-28T08:02:05.521Z,16.50
2019-04-28T08:04:35.256Z,16.50
2019-04-28T08:10:51.434Z,15.90
2019-04-28T08:13:21.287Z,16.50
2019-04-28T08:15:54.245Z,17.00
2019-04-28T08:18:23.920Z,17.30
2019-04-28T08:20:53.542Z,17.80
2019-04-28T08:23:23.337Z,17.50
2019-04-28T08:25:52.832Z,17.30
2019-04-28T08:28:22.346Z,17.20
2019-04-28T08:30:52.438Z,17.10
2019-04-28T08:33:35.832Z,17.50
2019-04-28T08:36:08.446Z,16.90
2019-04-28T08:38:38.081Z,15.50
2019-04-28T08:41:07.895Z,15.00
2019-04-28T08:43:37.604Z,15.20
2019-04-28T08:46:07.113Z,14.20
2019-04-28T08:48:36.608Z,13.40
2019-04-28T08:51:06.361Z,13.70
2019-04-28T08:53:35.930Z,13.60
2019-04-28T08:56:05.340Z,13.70
2019-04-28T08:58:39.009Z,14.00
2019-04-28T09:01:12.228Z,13.70
2019-04-28T09:03:41.784Z,13.60
2019-04-28T09:06:11.443Z,13.40
2019-04-28T09:08:40.918Z,13.10
2019-04-28T09:11:13.423Z,12.70
2019-04-28T09:13:44.032Z,12.70
2019-04-28T09:16:13.741Z,12.30
2019-04-28T09:18:43.649Z,12.00
2019-04-28T09:21:13.388Z,12.00
2019-04-28T09:23:43.890Z,11.90
2019-04-28T09:26:13.988Z,12.10
2019-04-28T09:28:46.922Z,12.40
2019-04-28T09:31:16.529Z,12.50
2019-04-28T09:33:47.174Z,12.50
2019-04-28T09:36:16.777Z,12.30
2019-04-28T09:38:46.320Z,12.20
2019-04-28T09:41:16.109Z,12.10
2019-04-28T09:43:56.626Z,12.00
2019-04-28T09:46:29.979Z,12.00
2019-04-28T09:49:00.042Z,12.10
2019-04-28T09:51:29.700Z,12.50
2019-04-28T09:53:59.580Z,12.60
2019-04-28T09:56:29.779Z,12.40
2019-04-28T09:58:59.826Z,12.30
2019-04-28T10:01:29.776Z,12.40
2019-04-28T10:04:05.742Z,12.30
2019-04-28T10:06:38.626Z,12.60
2019-04-28T10:09:08.538Z,12.80
2019-04-28T10:11:41.686Z,12.90
2019-04-28T10:14:11.601Z,12.90
2019-04-28T10:16:41.516Z,12.90
2019-04-28T10:19:11.226Z,13.20
2019-04-28T10:21:58.906Z,13.50
2019-04-28T10:24:28.688Z,13.70
2019-04-28T10:27:01.040Z,13.60
2019-04-28T10:29:32.948Z,13.90
2019-04-28T10:32:02.376Z,14.00
2019-04-28T10:34:32.039Z,14.30
2019-04-28T10:37:02.340Z,14.70
2019-04-28T10:39:37.648Z,14.90
2019-04-28T10:42:10.768Z,15.00
2019-04-28T10:44:45.516Z,14.90
2019-04-28T10:47:15.929Z,14.50
2019-04-28T10:49:46.349Z,14.30
2019-04-28T10:52:19.479Z,14.30
2019-04-28T10:54:52.334Z,14.50
2019-04-28T10:57:22.122Z,14.50
2019-04-28T10:59:54.708Z,14.50
2019-04-28T11:02:27.801Z,14.30
2019-04-28T11:05:08.882Z,14.60
2019-04-28T11:07:39.571Z,14.50
2019-04-28T11:10:12.874Z,13.40
2019-04-28T11:12:44.429Z,14.00
2019-04-28T11:15:28.955Z,13.30
2019-04-28T11:17:59.340Z,13.90
2019-04-28T11:23:25.781Z,14.30
2019-04-28T11:25:58.229Z,14.60
2019-04-28T11:28:27.979Z,14.80
2019-04-28T11:31:00.863Z,14.90
2019-04-28T11:33:52.489Z,14.70
2019-04-28T11:36:23.734Z,14.80
2019-04-28T11:38:55.244Z,14.20
2019-04-28T11:41:24.893Z,14.10
2019-04-28T11:43:54.500Z,13.80
2019-04-28T11:46:28.577Z,13.70
2019-04-28T11:48:58.529Z,13.90
2019-04-28T11:51:28.281Z,13.80
2019-04-28T11:53:58.269Z,13.70
2019-04-28T11:56:40.430Z,13.50
2019-04-28T11:59:03.307Z,13.40
2019-04-28T12:01:33.487Z,13.40
2019-04-28T12:04:04.919Z,12.50
2019-04-28T12:06:39.855Z,13.00
2019-04-28T12:10:03.371Z,13.40
2019-04-28T12:12:45.021Z,13.40
2019-04-28T12:16:00.935Z,13.00
2019-04-28T12:19:01.601Z,12.80
2019-04-28T12:21:34.690Z,12.80
2019-04-28T12:24:08.188Z,12.40
2019-04-28T12:26:38.086Z,12.40
2019-04-28T12:29:07.989Z,12.80
2019-04-28T12:31:40.532Z,12.70
2019-04-28T12:34:10.584Z,12.60
2019-04-28T12:36:41.010Z,12.70
2019-04-28T12:39:10.955Z,12.50
2019-04-28T12:41:41.233Z,12.70
2019-04-28T12:44:11.499Z,12.70
2019-04-28T12:46:41.414Z,12.70
2019-04-28T12:49:34.676Z,12.50
2019-04-28T12:52:06.368Z,12.20
2019-04-28T12:54:37.857Z,11.60
2019-04-28T12:57:07.800Z,11.50
2019-04-28T12:59:43.551Z,11.50
2019-04-28T13:02:32.309Z,11.40
2019-04-28T13:05:09.595Z,11.30
2019-04-28T13:07:39.567Z,11.20
2019-04-28T13:10:09.470Z,10.90
2019-04-28T13:12:42.412Z,11.00
2019-04-28T13:15:12.290Z,11.00
2019-04-28T13:17:42.547Z,10.90
2019-04-28T13:20:12.457Z,10.80
2019-04-28T13:22:45.368Z,11.00
2019-04-28T13:25:18.026Z,11.00
2019-04-28T13:27:51.117Z,10.80
2019-04-28T13:30:24.027Z,10.90
2019-04-28T13:33:00.395Z,11.00
2019-04-28T13:35:30.429Z,11.20
2019-04-28T13:38:06.382Z,11.50
2019-04-28T13:40:38.174Z,12.00
2019-04-28T13:43:13.672Z,12.20
2019-04-28T13:45:44.024Z,12.60
2019-04-28T13:48:13.641Z,12.20
2019-04-28T13:50:48.801Z,12.40
2019-04-28T13:53:18.185Z,12.50
2019-04-28T13:56:01.336Z,12.40
2019-04-28T13:58:34.928Z,11.80
2019-04-28T14:01:24.007Z,11.40
2019-04-28T14:04:13.030Z,11.20
2019-04-28T14:06:46.612Z,10.90
2019-04-28T14:09:18.331Z,10.70
2019-04-28T14:11:48.576Z,10.60
2019-04-28T14:14:22.969Z,10.40
2019-04-28T14:17:39.681Z,9.80
2019-04-28T14:20:09.792Z,9.60
2019-04-28T14:22:39.818Z,9.30
2019-04-28T14:25:09.732Z,9.60
2019-04-28T14:27:43.022Z,9.70
2019-04-28T14:30:12.965Z,9.90
2019-04-28T14:32:42.968Z,9.90
2019-04-28T14:35:12.711Z,10.10
2019-04-28T14:37:42.617Z,10.00
2019-04-28T14:40:12.328Z,10.10
2019-04-28T14:42:42.412Z,10.30
2019-04-28T14:45:12.485Z,10.30
2019-04-28T14:47:53.159Z,10.20
2019-04-28T14:50:26.186Z,10.10
2019-04-28T14:52:57.275Z,10.30
2019-04-28T14:55:31.850Z,10.00
2019-04-28T14:58:05.119Z,9.80
2019-04-28T15:00:42.433Z,9.60
2019-04-28T15:03:13.828Z,9.50
2019-04-28T15:05:58.824Z,9.50
2019-04-28T15:08:43.174Z,9.60
2019-04-28T15:11:25.019Z,9.30
2019-04-28T15:13:58.246Z,9.40
2019-04-28T15:16:31.453Z,9.40
2019-04-28T15:19:04.572Z,9.50
2019-04-28T15:21:34.458Z,9.50
2019-04-28T15:24:04.196Z,9.50
2019-04-28T15:26:37.285Z,9.40
2019-04-28T15:29:07.302Z,8.90
2019-04-28T15:31:42.194Z,9.00
2019-04-28T15:34:12.093Z,8.70
2019-04-28T15:36:43.601Z,8.90
2019-04-28T15:39:17.031Z,8.90
2019-04-28T15:41:47.321Z,9.00
2019-04-28T15:44:19.575Z,8.80
2019-04-28T15:47:14.188Z,8.70
2019-04-28T15:49:44.304Z,8.60
2019-04-28T15:52:17.188Z,8.80
2019-04-28T15:54:47.482Z,8.40
2019-04-28T15:57:17.209Z,8.50
2019-04-28T15:59:50.560Z,8.30
2019-04-28T16:02:23.813Z,8.80
2019-04-28T16:04:53.725Z,8.70
2019-04-28T16:11:11.476Z,8.60
2019-04-28T16:13:41.715Z,8.20
2019-04-28T16:16:18.101Z,8.20
2019-04-28T16:18:51.182Z,8.20
2019-04-28T16:21:25.859Z,8.10
2019-04-28T16:23:57.337Z,8.20
2019-04-28T16:26:27.705Z,7.90
2019-04-28T16:29:04.582Z,7.70
2019-04-28T16:32:39.406Z,7.90
2019-04-28T16:35:58.725Z,7.70
2019-04-28T16:38:31.428Z,8.10
2019-04-28T16:41:57.916Z,7.80
2019-04-28T16:44:40.902Z,7.80
2019-04-28T16:47:23.400Z,7.80
2019-04-28T16:50:04.376Z,7.80
2019-04-28T16:52:46.413Z,7.80
2019-04-28T16:55:35.080Z,7.70
2019-04-28T16:58:21.326Z,7.60
2019-04-28T17:01:13.154Z,7.70
2019-04-28T17:03:47.206Z,7.70
2019-04-28T17:06:17.386Z,7.60
2019-04-28T17:08:48.485Z,7.70
2019-04-28T17:11:18.305Z,7.50
2019-04-28T17:13:48.027Z,7.40
2019-04-28T17:16:18.481Z,7.40
2019-04-28T17:18:52.535Z,7.40
2019-04-28T17:21:22.480Z,7.40
2019-04-28T17:23:52.151Z,7.30
2019-04-28T17:26:25.101Z,7.10
2019-04-28T17:28:58.189Z,6.90
2019-04-28T17:31:28.179Z,6.70
2019-04-28T17:33:58.057Z,6.80
2019-04-28T17:36:34.180Z,6.70
2019-04-28T17:39:06.524Z,6.70
2019-04-28T17:41:55.968Z,6.70
2019-04-28T17:45:02.691Z,6.20
2019-04-28T17:47:48.123Z,6.10
2019-04-28T17:54:00.720Z,6.20
2019-04-28T17:59:24.549Z,6.30
2019-04-28T18:02:23.992Z,6.30
2019-04-28T18:05:24.858Z,6.30
2019-04-28T18:10:52.837Z,6.30
2019-04-28T18:13:53.478Z,6.20
2019-04-28T18:17:00.505Z,6.00
2019-04-28T18:19:41.374Z,5.90
2019-04-28T18:22:34.804Z,5.90
2019-04-28T18:25:23.252Z,6.00
2019-04-28T18:28:14.090Z,5.90
2019-04-28T18:31:01.890Z,5.90
2019-04-28T18:33:52.284Z,5.80
2019-04-28T18:36:32.927Z,5.80
2019-04-28T18:39:25.675Z,5.60
2019-04-28T18:42:10.561Z,5.40
2019-04-28T18:44:42.459Z,5.40
2019-04-28T18:47:15.414Z,5.40
2019-04-28T18:49:53.623Z,5.50
2019-04-28T18:55:19.154Z,5.30
2019-04-28T18:58:07.605Z,5.30
2019-04-28T19:00:46.530Z,5.40
2019-04-28T19:03:16.436Z,5.30
2019-04-28T19:05:48.510Z,5.30
2019-04-28T19:08:48.928Z,5.30
2019-04-28T19:18:24.713Z,5.40
2019-04-28T19:21:13.087Z,5.40
2019-04-28T19:23:43.413Z,5.40
2019-04-28T19:26:16.908Z,5.40
2019-04-28T19:28:48.155Z,5.40
2019-04-28T19:31:22.957Z,5.40
2019-04-28T19:34:19.519Z,5.40
2019-04-28T19:36:49.156Z,5.30
2019-04-28T19:39:19.456Z,5.40
2019-04-28T19:41:54.142Z,5.50
2019-04-28T19:44:35.977Z,5.40
2019-04-28T19:47:06.036Z,5.40
2019-04-28T19:49:41.988Z,5.30
2019-04-28T19:52:11.660Z,5.20
2019-04-28T19:55:13.523Z,5.20
2019-04-28T19:58:26.312Z,5.30
2019-04-28T20:01:26.776Z,5.40
2019-04-28T20:04:09.489Z,5.30
2019-04-28T20:06:49.482Z,5.50
2019-04-28T20:09:19.357Z,5.50
2019-04-28T20:11:49.271Z,5.50
2019-04-28T20:14:42.399Z,5.50
2019-04-28T20:20:11.954Z,5.40
2019-04-28T20:22:45.494Z,5.40
2019-04-28T20:25:23.356Z,5.40
2019-04-28T20:27:56.239Z,5.50
2019-04-28T20:30:35.650Z,5.40
2019-04-28T20:33:22.282Z,5.40
2019-04-28T20:36:00.595Z,5.40
2019-04-28T20:42:29.615Z,5.30
2019-04-28T20:45:20.420Z,5.30
2019-04-28T20:51:53.229Z,5.30
2019-04-28T20:54:35.005Z,5.50
2019-04-28T21:00:34.245Z,5.50
2019-04-28T21:03:08.663Z,5.40
2019-04-28T21:05:43.055Z,5.30
2019-04-28T21:08:25.287Z,5.40
2019-04-28T21:10:55.479Z,5.40
2019-04-28T21:13:28.822Z,5.30
2019-04-28T21:16:25.441Z,5.20
2019-04-28T21:19:09.665Z,5.10
2019-04-28T21:21:59.077Z,5.10
2019-04-28T21:24:29.291Z,5.10
2019-04-28T21:27:05.244Z,5.10
2019-04-28T21:29:58.887Z,5.20
2019-04-28T21:32:51.924Z,5.20
2019-04-28T21:35:21.960Z,5.10
2019-04-28T21:37:58.417Z,5.10
2019-04-28T21:40:38.147Z,5.10
2019-04-28T21:43:43.959Z,5.10
2019-04-28T21:46:49.066Z,5.20
2019-04-28T21:49:36.983Z,5.20
2019-04-28T21:55:39.741Z,5.20
2019-04-28T21:58:33.002Z,5.30
2019-04-28T22:01:24.770Z,5.30
2019-04-28T22:04:05.394Z,5.30
2019-04-28T22:14:37.107Z,5.50
2019-04-28T22:27:42.761Z,5.50
2019-04-28T22:30:12.777Z,5.50
2019-04-28T22:32:42.714Z,5.50
2019-04-28T22:35:12.467Z,5.50
2019-04-28T22:38:06.947Z,5.50
2019-04-28T22:40:36.724Z,5.50
2019-04-28T22:43:11.263Z,5.50
2019-04-28T22:45:50.364Z,5.60
2019-04-28T22:48:22.389Z,5.60
2019-04-28T22:50:53.173Z,5.50
2019-04-28T22:53:30.717Z,5.50
2019-04-28T22:56:28.587Z,5.50
2019-04-28T22:59:15.092Z,5.50
2019-04-28T23:02:21.919Z,5.50
2019-04-28T23:05:03.671Z,5.60
2019-04-28T23:07:33.341Z,5.40
2019-04-28T23:10:04.107Z,5.20
2019-04-28T23:12:33.781Z,5.30
2019-04-28T23:15:04.474Z,5.40
2019-04-28T23:17:34.361Z,5.30
2019-04-28T23:20:05.379Z,5.30
2019-04-28T23:22:47.080Z,5.30
2019-04-28T23:25:15.114Z,5.30
2019-04-28T23:27:57.366Z,5.30
2019-04-28T23:31:04.284Z,5.30
2019-04-28T23:33:45.222Z,5.20
2019-04-28T23:36:36.521Z,5.20
2019-04-28T23:39:07.778Z,5.20
2019-04-28T23:41:44.973Z,5.30
2019-04-28T23:44:15.035Z,5.20
2019-04-28T23:46:58.613Z,5.10
2019-04-28T23:49:29.550Z,5.20
2019-04-28T23:52:17.405Z,5.20
2019-04-28T23:55:15.172Z,5.20
2019-04-28T23:57:54.186Z,5.20
